createdAt,value
2017-12-04T00:00:49.102Z,818.31
2017-12-04T00:01:49.100Z,818.28
2017-12-04T00:02:49.104Z,818.28
2017-12-04T00:03:49.104Z,818.32
2017-12-04T00:04:49.109Z,818.33
2017-12-04T00:05:49.110Z,818.34
2017-12-04T00:06:49.109Z,818.36
2017-12-04T00:07:49.114Z,818.36
2017-12-04T00:08:49.114Z,818.37
2017-12-04T00:09:49.118Z,818.40
2017-12-04T00:10:49.118Z,818.43
2017-12-04T00:11:49.122Z,818.41
2017-12-04T00:12:49.123Z,818.36
2017-12-04T00:13:49.125Z,818.42
2017-12-04T00:14:49.126Z,818.38
2017-12-04T00:15:49.129Z,818.36
2017-12-04T00:16:49.132Z,818.36
2017-12-04T00:17:49.133Z,818.39
2017-12-04T00:18:49.135Z,818.43
2017-12-04T00:19:49.141Z,818.42
2017-12-04T00:20:49.138Z,818.47
2017-12-04T00:21:49.142Z,818.51
2017-12-04T00:22:49.142Z,818.47
2017-12-04T00:23:49.153Z,818.45
2017-12-04T00:24:49.149Z,818.45
2017-12-04T00:25:49.149Z,818.49
2017-12-04T00:26:49.150Z,818.45
2017-12-04T00:27:49.160Z,818.44
2017-12-04T00:28:49.213Z,818.39
2017-12-04T00:29:49.156Z,818.43
2017-12-04T00:30:49.158Z,818.46
2017-12-04T00:31:49.159Z,818.43
2017-12-04T00:32:49.161Z,818.46
2017-12-04T00:33:49.164Z,818.43
2017-12-04T00:34:49.164Z,818.43
2017-12-04T00:35:49.166Z,818.42
2017-12-04T00:36:49.166Z,818.39
2017-12-04T00:37:49.168Z,818.50
2017-12-04T00:38:49.171Z,818.51
2017-12-04T00:39:49.173Z,818.50
2017-12-04T00:40:49.176Z,818.56
2017-12-04T00:41:49.178Z,818.59
2017-12-04T00:42:49.176Z,818.65
2017-12-04T00:43:49.180Z,818.61
2017-12-04T00:44:49.180Z,818.59
2017-12-04T00:45:49.183Z,818.60
2017-12-04T00:46:49.184Z,818.59
2017-12-04T00:47:49.184Z,818.56
2017-12-04T00:48:49.187Z,818.60
2017-12-04T00:49:49.189Z,818.63
2017-12-04T00:50:49.195Z,818.59
2017-12-04T00:51:49.193Z,818.57
2017-12-04T00:52:49.193Z,818.62
2017-12-04T00:53:49.198Z,818.62
2017-12-04T00:54:49.198Z,818.61
2017-12-04T00:55:49.199Z,818.60
2017-12-04T00:56:49.200Z,818.60
2017-12-04T00:57:49.203Z,818.61
2017-12-04T00:58:49.204Z,818.60
2017-12-04T00:59:49.203Z,818.59
2017-12-04T01:00:49.205Z,818.57
2017-12-04T01:01:49.208Z,818.58
2017-12-04T01:02:49.208Z,818.58
2017-12-04T01:03:49.209Z,818.54
2017-12-04T01:04:49.212Z,818.55
2017-12-04T01:05:49.213Z,818.55
2017-12-04T01:06:49.218Z,818.56
2017-12-04T01:07:49.218Z,818.56
2017-12-04T01:08:49.219Z,818.57
2017-12-04T01:09:49.222Z,818.58
2017-12-04T01:10:49.224Z,818.60
2017-12-04T01:11:49.225Z,818.64
2017-12-04T01:12:49.228Z,818.65
2017-12-04T01:13:49.229Z,818.63
2017-12-04T01:14:49.229Z,818.67
2017-12-04T01:15:49.231Z,818.64
2017-12-04T01:16:49.234Z,818.63
2017-12-04T01:17:49.238Z,818.65
2017-12-04T01:18:49.238Z,818.66
2017-12-04T01:19:49.239Z,818.66
2017-12-04T01:20:49.242Z,818.68
2017-12-04T01:21:49.243Z,818.67
2017-12-04T01:22:49.243Z,818.65
2017-12-04T01:23:49.246Z,818.67
2017-12-04T01:24:49.248Z,818.67
2017-12-04T01:25:49.275Z,818.67
2017-12-04T01:26:49.261Z,818.70
2017-12-04T01:27:49.254Z,818.66
2017-12-04T01:28:49.255Z,818.72
2017-12-04T01:29:49.311Z,818.70
2017-12-04T01:30:49.262Z,818.73
2017-12-04T01:31:49.262Z,818.71
2017-12-04T01:32:49.264Z,818.72
2017-12-04T01:33:49.268Z,818.74
2017-12-04T01:34:49.268Z,818.74
2017-12-04T01:35:49.269Z,818.72
2017-12-04T01:36:49.271Z,818.72
2017-12-04T01:37:49.273Z,818.70
2017-12-04T01:38:49.274Z,818.74
2017-12-04T01:39:49.277Z,818.72
2017-12-04T01:40:49.280Z,818.75
2017-12-04T01:41:49.280Z,818.70
2017-12-04T01:42:49.281Z,818.73
2017-12-04T01:43:49.286Z,818.68
2017-12-04T01:44:49.288Z,818.68
2017-12-04T01:45:49.287Z,818.68
2017-12-04T01:46:49.291Z,818.67
2017-12-04T01:47:49.291Z,818.66
2017-12-04T01:48:49.296Z,818.67
2017-12-04T01:49:49.302Z,818.73
2017-12-04T01:50:49.298Z,818.72
2017-12-04T01:51:49.301Z,818.79
2017-12-04T01:52:49.302Z,818.81
2017-12-04T01:53:49.305Z,818.77
2017-12-04T01:54:49.306Z,818.76
2017-12-04T01:55:49.308Z,818.76
2017-12-04T01:56:49.311Z,818.78
2017-12-04T01:57:49.312Z,818.79
2017-12-04T01:58:49.314Z,818.79
2017-12-04T01:59:49.317Z,818.79
2017-12-04T02:00:49.318Z,818.82
2017-12-04T02:01:49.321Z,818.80
2017-12-04T02:02:49.322Z,818.80
2017-12-04T02:03:49.325Z,818.81
2017-12-04T02:04:49.326Z,818.84
2017-12-04T02:05:49.330Z,818.87
2017-12-04T02:06:49.331Z,818.86
2017-12-04T02:07:49.336Z,818.93
2017-12-04T02:08:49.335Z,818.94
2017-12-04T02:09:49.338Z,818.95
2017-12-04T02:10:49.338Z,818.93
2017-12-04T02:11:49.342Z,818.96
2017-12-04T02:12:49.343Z,818.90
2017-12-04T02:13:49.345Z,818.95
2017-12-04T02:14:49.347Z,818.86
2017-12-04T02:15:49.349Z,818.86
2017-12-04T02:16:49.351Z,818.89
2017-12-04T02:17:49.353Z,818.89
2017-12-04T02:18:49.353Z,818.89
2017-12-04T02:19:49.360Z,818.85
2017-12-04T02:20:49.358Z,818.83
2017-12-04T02:21:49.361Z,818.86
2017-12-04T02:22:49.364Z,818.82
2017-12-04T02:23:49.366Z,818.81
2017-12-04T02:24:49.367Z,818.85
2017-12-04T02:25:49.368Z,818.85
2017-12-04T02:26:49.370Z,818.86
2017-12-04T02:27:49.375Z,818.88
2017-12-04T02:28:49.374Z,818.89
2017-12-04T02:29:49.380Z,818.89
2017-12-04T02:30:49.379Z,818.88
2017-12-04T02:31:49.383Z,818.86
2017-12-04T02:32:49.385Z,818.83
2017-12-04T02:33:49.387Z,818.88
2017-12-04T02:34:49.387Z,818.88
2017-12-04T02:35:49.391Z,818.90
2017-12-04T02:36:49.393Z,818.95
2017-12-04T02:37:49.394Z,818.95
2017-12-04T02:38:49.396Z,818.94
2017-12-04T02:39:49.401Z,818.96
2017-12-04T02:40:49.401Z,819.01
2017-12-04T02:41:49.403Z,819.02
2017-12-04T02:42:49.406Z,818.99
2017-12-04T02:43:49.407Z,818.99
2017-12-04T02:44:49.410Z,818.95
2017-12-04T02:45:49.411Z,818.93
2017-12-04T02:46:49.411Z,818.95
2017-12-04T02:47:49.415Z,818.92
2017-12-04T02:48:49.417Z,818.92
2017-12-04T02:49:49.420Z,818.92
2017-12-04T02:50:49.426Z,818.95
2017-12-04T02:51:49.430Z,818.91
2017-12-04T02:52:49.426Z,818.93
2017-12-04T02:53:49.429Z,818.90
2017-12-04T02:54:49.432Z,818.87
2017-12-04T02:55:49.433Z,818.86
2017-12-04T02:56:49.435Z,818.87
2017-12-04T02:57:49.436Z,818.85
2017-12-04T02:58:49.439Z,818.84
2017-12-04T02:59:49.445Z,818.85
2017-12-04T03:00:49.444Z,818.85
2017-12-04T03:01:49.445Z,818.89
2017-12-04T03:02:49.449Z,818.88
2017-12-04T03:03:49.451Z,818.94
2017-12-04T03:04:49.452Z,818.90
2017-12-04T03:05:49.456Z,818.88
2017-12-04T03:06:49.459Z,818.83
2017-12-04T03:07:49.460Z,818.85
2017-12-04T03:08:49.464Z,818.83
2017-12-04T03:09:49.465Z,818.83
2017-12-04T03:10:49.465Z,818.87
2017-12-04T03:11:49.469Z,818.89
2017-12-04T03:12:49.471Z,818.92
2017-12-04T03:13:49.474Z,818.92
2017-12-04T03:14:49.475Z,818.97
2017-12-04T03:15:49.478Z,818.96
2017-12-04T03:16:49.480Z,818.96
2017-12-04T03:17:49.482Z,818.98
2017-12-04T03:18:49.485Z,818.94
2017-12-04T03:19:49.487Z,819.01
2017-12-04T03:20:49.487Z,819.01
2017-12-04T03:21:49.491Z,818.98
2017-12-04T03:22:49.495Z,818.94
2017-12-04T03:23:49.495Z,818.96
2017-12-04T03:24:49.497Z,818.99
2017-12-04T03:25:49.503Z,819.00
2017-12-04T03:26:49.502Z,818.99
2017-12-04T03:27:49.505Z,818.99
2017-12-04T03:28:49.506Z,818.98
2017-12-04T03:29:49.510Z,818.95
2017-12-04T03:30:49.513Z,818.93
2017-12-04T03:31:49.511Z,818.92
2017-12-04T03:32:49.518Z,818.90
2017-12-04T03:33:49.519Z,818.90
2017-12-04T03:34:49.520Z,818.91
2017-12-04T03:35:49.521Z,818.90
2017-12-04T03:36:49.524Z,818.85
2017-12-04T03:37:49.527Z,818.84
2017-12-04T03:38:49.529Z,818.89
2017-12-04T03:39:49.537Z,818.86
2017-12-04T03:40:49.534Z,818.88
2017-12-04T03:41:49.535Z,818.90
2017-12-04T03:42:49.537Z,818.84
2017-12-04T03:43:49.541Z,818.86
2017-12-04T03:44:49.542Z,818.86
2017-12-04T03:45:49.543Z,818.90
2017-12-04T03:46:49.544Z,818.91
2017-12-04T03:47:49.548Z,818.89
2017-12-04T03:48:49.551Z,818.92
2017-12-04T03:49:49.550Z,818.89
2017-12-04T03:50:49.553Z,818.91
2017-12-04T03:51:49.556Z,818.94
2017-12-04T03:52:49.557Z,818.97
2017-12-04T03:53:49.558Z,818.99
2017-12-04T03:54:49.561Z,818.98
2017-12-04T03:55:49.563Z,818.99
2017-12-04T03:56:49.565Z,818.98
2017-12-04T03:57:49.567Z,818.97
2017-12-04T03:58:49.568Z,819.00
2017-12-04T03:59:49.569Z,819.04
2017-12-04T04:00:49.573Z,819.01
2017-12-04T04:01:49.575Z,819.00
2017-12-04T04:02:49.574Z,819.00
2017-12-04T04:03:49.578Z,818.98
2017-12-04T04:04:49.581Z,818.94
2017-12-04T04:05:49.581Z,818.97
2017-12-04T04:06:49.581Z,818.96
2017-12-04T04:07:49.586Z,818.97
2017-12-04T04:08:49.587Z,819.02
2017-12-04T04:09:49.589Z,819.02
2017-12-04T04:10:49.590Z,819.07
2017-12-04T04:11:49.593Z,819.11
2017-12-04T04:12:49.596Z,819.15
2017-12-04T04:13:49.596Z,819.12
2017-12-04T04:14:49.599Z,819.11
2017-12-04T04:15:49.600Z,819.08
2017-12-04T04:16:49.602Z,819.06
2017-12-04T04:17:49.605Z,819.09
2017-12-04T04:18:49.605Z,819.14
2017-12-04T04:19:49.609Z,819.09
2017-12-04T04:20:49.612Z,819.05
2017-12-04T04:21:49.611Z,819.07
2017-12-04T04:22:49.614Z,819.10
2017-12-04T04:23:49.616Z,819.04
2017-12-04T04:24:49.618Z,819.05
2017-12-04T04:25:49.626Z,819.08
2017-12-04T04:26:49.622Z,819.08
2017-12-04T04:27:49.623Z,819.06
2017-12-04T04:28:49.631Z,819.10
2017-12-04T04:29:49.626Z,819.08
2017-12-04T04:30:49.632Z,819.11
2017-12-04T04:31:49.631Z,819.08
2017-12-04T04:32:49.635Z,819.17
2017-12-04T04:33:49.640Z,819.08
2017-12-04T04:34:49.635Z,819.10
2017-12-04T04:35:49.643Z,819.06
2017-12-04T04:36:49.642Z,819.04
2017-12-04T04:37:49.648Z,819.09
2017-12-04T04:38:49.644Z,819.05
2017-12-04T04:39:49.644Z,819.05
2017-12-04T04:40:49.650Z,819.05
2017-12-04T04:41:49.649Z,819.08
2017-12-04T04:42:49.653Z,819.12
2017-12-04T04:43:49.654Z,819.11
2017-12-04T04:44:49.655Z,819.15
2017-12-04T04:45:49.657Z,819.14
2017-12-04T04:46:49.657Z,819.15
2017-12-04T04:47:49.667Z,819.18
2017-12-04T04:48:49.662Z,819.21
2017-12-04T04:49:49.664Z,819.20
2017-12-04T04:50:49.666Z,819.21
2017-12-04T04:51:49.669Z,819.24
2017-12-04T04:52:49.737Z,819.30
2017-12-04T04:53:49.672Z,819.36
2017-12-04T04:54:49.673Z,819.37
2017-12-04T04:55:49.676Z,819.38
2017-12-04T04:56:49.699Z,819.35
2017-12-04T04:57:49.684Z,819.37
2017-12-04T04:58:49.684Z,819.34
2017-12-04T04:59:49.686Z,819.35
2017-12-04T05:00:49.686Z,819.36
2017-12-04T05:01:49.691Z,819.44
2017-12-04T05:02:49.690Z,819.38
2017-12-04T05:03:49.691Z,819.41
2017-12-04T05:04:49.694Z,819.41
2017-12-04T05:05:49.696Z,819.43
2017-12-04T05:06:49.698Z,819.43
2017-12-04T05:07:49.700Z,819.45
2017-12-04T05:08:49.702Z,819.46
2017-12-04T05:09:49.704Z,819.50
2017-12-04T05:10:49.705Z,819.49
2017-12-04T05:11:49.707Z,819.52
2017-12-04T05:12:49.711Z,819.46
2017-12-04T05:13:49.712Z,819.48
2017-12-04T05:14:49.715Z,819.46
2017-12-04T05:15:49.715Z,819.48
2017-12-04T05:16:49.716Z,819.45
2017-12-04T05:17:49.719Z,819.45
2017-12-04T05:18:49.720Z,819.46
2017-12-04T05:19:49.725Z,819.50
2017-12-04T05:20:49.727Z,819.50
2017-12-04T05:21:49.728Z,819.49
2017-12-04T05:22:49.730Z,819.50
2017-12-04T05:23:49.729Z,819.50
2017-12-04T05:24:49.735Z,819.54
2017-12-04T05:25:49.736Z,819.58
2017-12-04T05:26:49.738Z,819.59
2017-12-04T05:27:49.739Z,819.63
2017-12-04T05:28:49.741Z,819.67
2017-12-04T05:29:49.744Z,819.67
2017-12-04T05:30:49.743Z,819.65
2017-12-04T05:31:49.745Z,819.65
2017-12-04T05:32:49.752Z,819.66
2017-12-04T05:33:49.753Z,819.69
2017-12-04T05:34:49.796Z,819.72
2017-12-04T05:35:49.754Z,819.68
2017-12-04T05:36:49.755Z,819.75
2017-12-04T05:37:49.758Z,819.76
2017-12-04T05:38:49.760Z,819.78
2017-12-04T05:39:49.761Z,819.75
2017-12-04T05:40:49.763Z,819.79
2017-12-04T05:41:49.764Z,819.79
2017-12-04T05:42:49.765Z,819.83
2017-12-04T05:43:49.768Z,819.90
2017-12-04T05:44:49.770Z,819.87
2017-12-04T05:45:49.774Z,819.89
2017-12-04T05:46:49.773Z,819.87
2017-12-04T05:47:49.774Z,819.91
2017-12-04T05:48:49.777Z,819.85
2017-12-04T05:49:49.779Z,819.90
2017-12-04T05:50:49.782Z,819.91
2017-12-04T05:51:49.784Z,819.93
2017-12-04T05:52:49.788Z,819.99
2017-12-04T05:53:49.788Z,819.93
2017-12-04T05:54:49.789Z,819.93
2017-12-04T05:55:49.790Z,819.96
2017-12-04T05:56:49.790Z,819.95
2017-12-04T05:57:49.792Z,820.00
2017-12-04T05:58:49.794Z,819.98
2017-12-04T05:59:49.795Z,820.01
2017-12-04T06:00:49.800Z,819.95
2017-12-04T06:01:49.802Z,819.98
2017-12-04T06:02:49.803Z,819.94
2017-12-04T06:03:49.806Z,819.92
2017-12-04T06:04:49.805Z,819.99
2017-12-04T06:05:49.808Z,819.98
2017-12-04T06:06:49.810Z,819.98
2017-12-04T06:07:49.811Z,820.04
2017-12-04T06:08:49.813Z,820.03
2017-12-04T06:09:49.813Z,820.00
2017-12-04T06:10:49.818Z,820.06
2017-12-04T06:11:49.820Z,820.02
2017-12-04T06:12:49.820Z,820.09
2017-12-04T06:13:49.824Z,820.10
2017-12-04T06:14:49.824Z,820.13
2017-12-04T06:15:49.827Z,820.14
2017-12-04T06:16:49.828Z,820.12
2017-12-04T06:17:49.828Z,820.10
2017-12-04T06:18:49.834Z,820.14
2017-12-04T06:19:49.833Z,820.12
2017-12-04T06:20:49.835Z,820.07
2017-12-04T06:21:49.837Z,820.11
2017-12-04T06:22:49.838Z,820.12
2017-12-04T06:23:49.840Z,820.13
2017-12-04T06:24:49.843Z,820.16
2017-12-04T06:25:49.845Z,820.12
2017-12-04T06:26:49.846Z,820.11
2017-12-04T06:27:49.846Z,820.13
2017-12-04T06:28:49.849Z,820.10
2017-12-04T06:29:49.852Z,820.12
2017-12-04T06:30:49.853Z,820.17
2017-12-04T06:31:49.857Z,820.12
2017-12-04T06:32:49.857Z,820.17
2017-12-04T06:33:49.863Z,820.17
2017-12-04T06:34:49.862Z,820.18
2017-12-04T06:35:49.862Z,820.26
2017-12-04T06:36:49.867Z,820.30
2017-12-04T06:37:49.870Z,820.34
2017-12-04T06:38:49.868Z,820.36
2017-12-04T06:39:49.872Z,820.38
2017-12-04T06:40:49.872Z,820.38
2017-12-04T06:41:49.875Z,820.41
2017-12-04T06:42:49.873Z,820.41
2017-12-04T06:43:49.877Z,820.36
2017-12-04T06:44:49.881Z,820.38
2017-12-04T06:45:49.879Z,820.42
2017-12-04T06:46:49.882Z,820.44
2017-12-04T06:47:49.885Z,820.44
2017-12-04T06:48:49.886Z,820.44
2017-12-04T06:49:49.887Z,820.49
2017-12-04T06:50:49.889Z,820.54
2017-12-04T06:51:49.891Z,820.54
2017-12-04T06:52:49.892Z,820.59
2017-12-04T06:53:49.894Z,820.57
2017-12-04T06:54:49.896Z,820.58
2017-12-04T06:55:49.897Z,820.63
2017-12-04T06:56:49.898Z,820.62
2017-12-04T06:57:49.901Z,820.59
2017-12-04T06:58:49.902Z,820.53
2017-12-04T06:59:49.905Z,820.55
2017-12-04T07:00:49.911Z,820.51
2017-12-04T07:01:49.908Z,820.52
2017-12-04T07:02:49.918Z,820.52
2017-12-04T07:03:49.911Z,820.52
2017-12-04T07:04:49.914Z,820.55
2017-12-04T07:05:49.916Z,820.59
2017-12-04T07:06:49.918Z,820.63
2017-12-04T07:07:49.919Z,820.65
2017-12-04T07:08:49.928Z,820.66
2017-12-04T07:09:49.928Z,820.68
2017-12-04T07:10:49.927Z,820.66
2017-12-04T07:11:49.926Z,820.67
2017-12-04T07:12:49.930Z,820.69
2017-12-04T07:13:49.933Z,820.63
2017-12-04T07:14:49.934Z,820.65
2017-12-04T07:15:49.936Z,820.60
2017-12-04T07:16:49.938Z,820.57
2017-12-04T07:17:49.940Z,820.63
2017-12-04T07:18:49.945Z,820.61
2017-12-04T07:19:49.945Z,820.64
2017-12-04T07:20:49.955Z,820.69
2017-12-04T07:21:49.949Z,820.74
2017-12-04T07:22:49.950Z,820.75
2017-12-04T07:23:49.954Z,820.77
2017-12-04T07:24:49.954Z,820.80
2017-12-04T07:25:49.958Z,820.80
2017-12-04T07:26:49.959Z,820.81
2017-12-04T07:27:49.960Z,820.85
2017-12-04T07:28:49.962Z,820.90
2017-12-04T07:29:49.965Z,820.89
2017-12-04T07:30:49.965Z,820.91
2017-12-04T07:31:49.967Z,820.89
2017-12-04T07:32:49.971Z,820.86
2017-12-04T07:33:49.971Z,820.89
2017-12-04T07:34:49.973Z,820.88
2017-12-04T07:35:49.974Z,820.92
2017-12-04T07:36:49.976Z,820.94
2017-12-04T07:37:49.981Z,821.01
2017-12-04T07:38:49.981Z,821.03
2017-12-04T07:39:49.986Z,821.06
2017-12-04T07:40:49.985Z,821.09
2017-12-04T07:41:49.988Z,821.10
2017-12-04T07:42:49.987Z,821.12
2017-12-04T07:43:49.988Z,821.11
2017-12-04T07:44:49.994Z,821.15
2017-12-04T07:45:49.996Z,821.17
2017-12-04T07:46:49.995Z,821.14
2017-12-04T07:47:49.999Z,821.12
2017-12-04T07:48:49.998Z,821.13
2017-12-04T07:49:50.006Z,821.13
2017-12-04T07:50:50.006Z,821.10
2017-12-04T07:51:50.006Z,821.06
2017-12-04T07:52:50.010Z,821.07
2017-12-04T07:53:50.012Z,821.08
2017-12-04T07:54:50.011Z,821.10
2017-12-04T07:55:50.015Z,821.11
2017-12-04T07:56:50.017Z,821.10
2017-12-04T07:57:50.021Z,821.13
2017-12-04T07:58:50.022Z,821.09
2017-12-04T07:59:50.022Z,821.12
2017-12-04T08:00:50.026Z,821.12
2017-12-04T08:01:50.028Z,821.13
2017-12-04T08:02:50.031Z,821.11
2017-12-04T08:03:50.032Z,821.14
2017-12-04T08:04:50.034Z,821.16
2017-12-04T08:05:50.039Z,821.21
2017-12-04T08:06:50.041Z,821.24
2017-12-04T08:07:50.042Z,821.24
2017-12-04T08:08:50.047Z,821.28
2017-12-04T08:09:50.050Z,821.27
2017-12-04T08:10:50.048Z,821.28
2017-12-04T08:11:50.051Z,821.26
2017-12-04T08:12:50.055Z,821.33
2017-12-04T08:13:50.059Z,821.32
2017-12-04T08:14:50.064Z,821.33
2017-12-04T08:15:50.063Z,821.33
2017-12-04T08:16:50.065Z,821.36
2017-12-04T08:17:50.069Z,821.37
2017-12-04T08:18:50.071Z,821.44
2017-12-04T08:19:50.072Z,821.41
2017-12-04T08:20:50.076Z,821.43
2017-12-04T08:21:50.080Z,821.42
2017-12-04T08:22:50.081Z,821.43
2017-12-04T08:23:50.086Z,821.42
2017-12-04T08:24:50.086Z,821.44
2017-12-04T08:25:50.089Z,821.49
2017-12-04T08:26:50.091Z,821.45
2017-12-04T08:27:50.094Z,821.51
2017-12-04T08:28:50.098Z,821.48
2017-12-04T08:29:50.102Z,821.48
2017-12-04T08:30:50.105Z,821.47
2017-12-04T08:31:50.107Z,821.51
2017-12-04T08:32:50.110Z,821.51
2017-12-04T08:33:50.114Z,821.51
2017-12-04T08:34:50.119Z,821.54
2017-12-04T08:35:50.120Z,821.58
2017-12-04T08:36:50.122Z,821.61
2017-12-04T08:37:50.127Z,821.60
2017-12-04T08:38:50.129Z,821.65
2017-12-04T08:39:50.133Z,821.64
2017-12-04T08:40:50.137Z,821.68
2017-12-04T08:41:50.141Z,821.67
2017-12-04T08:42:50.144Z,821.62
2017-12-04T08:43:50.148Z,821.62
2017-12-04T08:44:50.151Z,821.62
2017-12-04T08:45:50.154Z,821.62
2017-12-04T08:46:50.157Z,821.63
2017-12-04T08:47:50.161Z,821.60
2017-12-04T08:48:50.165Z,821.68
2017-12-04T08:49:50.168Z,821.63
2017-12-04T08:50:50.171Z,821.66
2017-12-04T08:51:50.178Z,821.62
2017-12-04T08:52:50.180Z,821.60
2017-12-04T08:53:50.184Z,821.59
2017-12-04T08:54:50.187Z,821.64
2017-12-04T08:55:50.193Z,821.69
2017-12-04T08:56:50.196Z,821.66
2017-12-04T08:57:50.201Z,821.68
2017-12-04T08:58:50.204Z,821.71
2017-12-04T08:59:50.208Z,821.71
2017-12-04T09:00:50.211Z,821.76
2017-12-04T09:01:50.215Z,821.77
2017-12-04T09:02:50.216Z,821.74
2017-12-04T09:03:50.222Z,821.80
2017-12-04T09:04:50.226Z,821.81
2017-12-04T09:05:50.229Z,821.90
2017-12-04T09:06:50.233Z,821.89
2017-12-04T09:07:50.240Z,821.87
2017-12-04T09:08:50.241Z,821.90
2017-12-04T09:09:50.244Z,821.90
2017-12-04T09:10:50.248Z,821.91
2017-12-04T09:11:50.257Z,821.91
2017-12-04T09:12:50.258Z,821.94
2017-12-04T09:13:50.261Z,821.92
2017-12-04T09:14:50.264Z,821.93
2017-12-04T09:15:50.270Z,821.94
2017-12-04T09:16:50.272Z,821.94
2017-12-04T09:17:50.328Z,821.96
2017-12-04T09:18:50.282Z,821.99
2017-12-04T09:19:50.285Z,821.99
2017-12-04T09:20:50.308Z,822.04
2017-12-04T09:21:50.296Z,821.98
2017-12-04T09:22:50.300Z,821.99
2017-12-04T09:23:50.303Z,821.94
2017-12-04T09:24:50.309Z,821.93
2017-12-04T09:25:50.325Z,821.95
2017-12-04T09:26:50.316Z,821.97
2017-12-04T09:27:50.324Z,822.01
2017-12-04T09:28:50.328Z,822.01
2017-12-04T09:29:50.331Z,822.02
2017-12-04T09:30:50.336Z,822.01
2017-12-04T09:31:50.344Z,822.03
2017-12-04T09:32:50.346Z,822.05
2017-12-04T09:33:50.351Z,822.06
2017-12-04T09:34:50.354Z,822.08
2017-12-04T09:35:50.360Z,822.11
2017-12-04T09:36:50.365Z,822.09
2017-12-04T09:37:50.371Z,822.09
2017-12-04T09:38:50.374Z,822.10
2017-12-04T09:39:50.378Z,822.05
2017-12-04T09:40:50.385Z,822.06
2017-12-04T09:41:50.398Z,822.07
2017-12-04T09:42:50.393Z,822.05
2017-12-04T09:43:50.399Z,822.07
2017-12-04T09:44:50.405Z,822.08
2017-12-04T09:45:50.412Z,822.12
2017-12-04T09:46:50.416Z,822.11
2017-12-04T09:47:50.472Z,822.19
2017-12-04T09:48:50.427Z,822.17
2017-12-04T09:49:50.431Z,822.21
2017-12-04T09:50:50.437Z,822.16
2017-12-04T09:51:50.442Z,822.20
2017-12-04T09:52:50.502Z,822.16
2017-12-04T09:53:50.456Z,822.13
2017-12-04T09:54:50.457Z,822.16
2017-12-04T09:55:50.464Z,822.18
2017-12-04T09:56:50.470Z,822.14
2017-12-04T09:57:50.476Z,822.16
2017-12-04T09:58:50.482Z,822.17
2017-12-04T09:59:50.486Z,822.21
2017-12-04T10:00:50.495Z,822.20
2017-12-04T10:01:50.499Z,822.20
2017-12-04T10:02:50.505Z,822.20
2017-12-04T10:03:50.511Z,822.19
2017-12-04T10:04:50.517Z,822.22
2017-12-04T10:05:50.549Z,822.16
2017-12-04T10:06:50.531Z,822.18
2017-12-04T10:07:50.535Z,822.15
2017-12-04T10:08:50.544Z,822.20
2017-12-04T10:09:50.550Z,822.18
2017-12-04T10:10:50.553Z,822.18
2017-12-04T10:11:50.565Z,822.21
2017-12-04T10:12:50.566Z,822.22
2017-12-04T10:13:50.575Z,822.22
2017-12-04T10:14:50.579Z,822.25
2017-12-04T10:15:50.585Z,822.20
2017-12-04T10:16:50.596Z,822.20
2017-12-04T10:17:50.598Z,822.22
2017-12-04T10:18:50.605Z,822.22
2017-12-04T10:19:50.611Z,822.29
2017-12-04T10:20:50.617Z,822.27
2017-12-04T10:21:50.627Z,822.21
2017-12-04T10:22:50.632Z,822.21
2017-12-04T10:23:50.638Z,822.27
2017-12-04T10:24:50.644Z,822.30
2017-12-04T10:25:50.651Z,822.29
2017-12-04T10:26:50.658Z,822.28
2017-12-04T10:27:50.713Z,822.30
2017-12-04T10:28:50.675Z,822.32
2017-12-04T10:29:50.680Z,822.32
2017-12-04T10:30:50.687Z,822.36
2017-12-04T10:31:50.693Z,822.32
2017-12-04T10:32:50.700Z,822.29
2017-12-04T10:33:50.714Z,822.31
2017-12-04T10:34:50.713Z,822.32
2017-12-04T10:35:50.722Z,822.29
2017-12-04T10:36:50.729Z,822.32
2017-12-04T10:37:50.735Z,822.34
2017-12-04T10:38:50.743Z,822.29
2017-12-04T10:39:50.748Z,822.32
2017-12-04T10:40:50.761Z,822.29
2017-12-04T10:41:50.769Z,822.26
2017-12-04T10:42:50.771Z,822.25
2017-12-04T10:43:50.779Z,822.25
2017-12-04T10:44:50.787Z,822.19
2017-12-04T10:45:50.793Z,822.20
2017-12-04T10:46:50.800Z,822.17
2017-12-04T10:47:50.807Z,822.18
2017-12-04T10:48:50.815Z,822.19
2017-12-04T10:49:50.822Z,822.17
2017-12-04T10:50:50.829Z,822.23
2017-12-04T10:51:50.837Z,822.17
2017-12-04T10:52:50.851Z,822.22
2017-12-04T10:53:50.852Z,822.19
2017-12-04T10:54:50.859Z,822.19
2017-12-04T10:55:50.867Z,822.22
2017-12-04T10:56:50.875Z,822.18
2017-12-04T10:57:50.883Z,822.23
2017-12-04T10:58:50.892Z,822.19
2017-12-04T10:59:50.898Z,822.21
2017-12-04T11:00:50.908Z,822.25
2017-12-04T11:01:50.918Z,822.23
2017-12-04T11:02:50.922Z,822.21
2017-12-04T11:03:50.935Z,822.19
2017-12-04T11:04:50.938Z,822.18
2017-12-04T11:05:50.948Z,822.19
2017-12-04T11:06:50.956Z,822.18
2017-12-04T11:07:50.965Z,822.26
2017-12-04T11:08:50.974Z,822.22
2017-12-04T11:09:50.981Z,822.23
2017-12-04T11:10:50.988Z,822.22
2017-12-04T11:11:50.996Z,822.24
2017-12-04T11:12:51.005Z,822.25
2017-12-04T11:13:51.015Z,822.25
2017-12-04T11:14:51.021Z,822.17
2017-12-04T11:15:51.030Z,822.17
2017-12-04T11:16:51.039Z,822.16
2017-12-04T11:17:51.046Z,822.19
2017-12-04T11:18:51.056Z,822.25
2017-12-04T11:19:51.064Z,822.27
2017-12-04T11:20:51.072Z,822.25
2017-12-04T11:21:51.082Z,822.22
2017-12-04T11:22:51.089Z,822.23
2017-12-04T11:23:51.100Z,822.24
2017-12-04T11:24:51.106Z,822.19
2017-12-04T11:25:51.116Z,822.21
2017-12-04T11:26:51.123Z,822.25
2017-12-04T11:27:51.130Z,822.30
2017-12-04T11:28:51.139Z,822.23
2017-12-04T11:29:51.150Z,822.26
2017-12-04T11:30:51.158Z,822.26
2017-12-04T11:31:51.168Z,822.27
2017-12-04T11:32:51.175Z,822.23
2017-12-04T11:33:51.186Z,822.20
2017-12-04T11:34:51.194Z,822.20
2017-12-04T11:35:51.202Z,822.22
2017-12-04T11:36:51.212Z,822.18
2017-12-04T11:37:51.220Z,822.24
2017-12-04T11:38:51.284Z,822.24
2017-12-04T11:39:51.236Z,822.27
2017-12-04T11:40:51.248Z,822.27
2017-12-04T11:41:51.257Z,822.28
2017-12-04T11:42:51.265Z,822.30
2017-12-04T11:43:51.272Z,822.29
2017-12-04T11:44:51.281Z,822.27
2017-12-04T11:45:51.291Z,822.26
2017-12-04T11:46:51.300Z,822.27
2017-12-04T11:47:51.309Z,822.25
2017-12-04T11:48:51.318Z,822.30
2017-12-04T11:49:51.328Z,822.33
2017-12-04T11:50:51.336Z,822.29
2017-12-04T11:51:51.346Z,822.34
2017-12-04T11:52:51.356Z,822.32
2017-12-04T11:53:51.368Z,822.26
2017-12-04T11:54:51.373Z,822.30
2017-12-04T11:55:51.387Z,822.27
2017-12-04T11:56:51.394Z,822.26
2017-12-04T11:57:51.404Z,822.32
2017-12-04T11:58:51.413Z,822.30
2017-12-04T11:59:51.423Z,822.31
2017-12-04T12:00:51.433Z,822.28
2017-12-04T12:01:51.446Z,822.31
2017-12-04T12:02:51.453Z,822.33
2017-12-04T12:03:51.463Z,822.29
2017-12-04T12:04:51.473Z,822.29
2017-12-04T12:05:51.486Z,822.28
2017-12-04T12:06:51.493Z,822.28
2017-12-04T12:07:51.504Z,822.31
2017-12-04T12:08:51.514Z,822.33
2017-12-04T12:09:51.528Z,822.34
2017-12-04T12:10:51.534Z,822.35
2017-12-04T12:11:51.544Z,822.37
2017-12-04T12:12:51.553Z,822.26
2017-12-04T12:13:51.564Z,822.25
2017-12-04T12:14:51.574Z,822.24
2017-12-04T12:15:51.584Z,822.22
2017-12-04T12:16:51.595Z,822.22
2017-12-04T12:17:51.606Z,822.30
2017-12-04T12:18:51.616Z,822.28
2017-12-04T12:19:51.625Z,822.25
2017-12-04T12:20:51.637Z,822.33
2017-12-04T12:21:51.647Z,822.33
2017-12-04T12:22:51.657Z,822.28
2017-12-04T12:23:51.669Z,822.26
2017-12-04T12:24:51.680Z,822.25
2017-12-04T12:25:51.695Z,822.21
2017-12-04T12:26:51.701Z,822.25
2017-12-04T12:27:51.716Z,822.25
2017-12-04T12:28:51.723Z,822.26